Current | Forecast
Updated: 1:00 AM ChST on April 22, 2018
Observed at Iwojima, Japan
Temperature 72°F
Humidity 64%
Dew Point 59°F
Wind East at 15 mph
Pressure 30.04 in (Falling)
Conditions Scattered Clouds
Visibility 6.2 miles
UV 0 out of 16
Clouds Scattered Clouds (SCT) : 1200 ft
Yesterday's Maximum 75°F
Yesterday's Minimum 72°F approx.
Yesterday's Cooling Degree Days 8 approx.
Sunrise5:06 AM JST
Sunset6:00 PM JST
Moon Rise10:23 AM JST
Moon Set
Moon PhaseMoon Phase
Waxing Crescent
Raw METARMETAR RJAW 211500Z 10013KT 9999 SCT012 22/15 Q1017 RMK 4CU012 A3006


Monday
. High: 80° F.
Tuesday
. High: 80° F.
Wednesday
. High: 80° F.
Thursday
. High: 80° F.
Friday
. High: 82° F.
Saturday
. High: 82° F.
Sunday
. High: 82° F.
Monday
. High: 82° F.

Units: English | Metric

Find the Weather for any City, State or Zipcode, or Country:

U.S. State List | Severe Weather | Tropical Storms | Ski Conditions
United States | Canada | Central America | South America | Asia | Europe | Australia | Africa | Islands

Weather Underground

© Copyright 2018
The Weather Company, LLC